createdAt,value
2023-03-08T00:01:12.312Z,5.30
2023-03-08T00:03:40.487Z,5.40
2023-03-08T00:06:10.188Z,5.30
2023-03-08T00:08:38.399Z,5.30
2023-03-08T00:11:07.054Z,5.30
2023-03-08T00:13:36.721Z,5.30
2023-03-08T00:16:06.357Z,5.30
2023-03-08T00:18:35.278Z,5.20
2023-03-08T00:21:04.745Z,5.20
2023-03-08T00:23:33.089Z,5.20
2023-03-08T00:26:01.130Z,5.10
2023-03-08T00:28:29.917Z,5.10
2023-03-08T00:31:02.077Z,5.10
2023-03-08T00:33:30.790Z,5.00
2023-03-08T00:35:59.509Z,5.00
2023-03-08T00:38:28.149Z,4.90
2023-03-08T00:40:56.253Z,4.90
2023-03-08T00:43:24.624Z,4.80
2023-03-08T00:45:53.230Z,4.80
2023-03-08T00:48:24.669Z,4.80
2023-03-08T00:50:53.318Z,4.80
2023-03-08T00:53:21.954Z,4.80
2023-03-08T00:55:50.480Z,4.80
2023-03-08T00:58:18.910Z,4.80
2023-03-08T01:00:47.400Z,4.80
2023-03-08T01:03:15.820Z,4.70
2023-03-08T01:05:46.813Z,4.70
2023-03-08T01:08:15.409Z,4.70
2023-03-08T01:10:48.478Z,4.70
2023-03-08T01:13:17.866Z,4.70
2023-03-08T01:15:46.457Z,4.70
2023-03-08T01:18:14.499Z,4.70
2023-03-08T01:20:43.291Z,4.60
2023-03-08T01:23:12.745Z,4.60
2023-03-08T01:25:41.043Z,4.50
2023-03-08T01:28:09.388Z,4.50
2023-03-08T01:30:37.709Z,4.50
2023-03-08T01:33:05.775Z,4.50
2023-03-08T01:35:33.978Z,4.40
2023-03-08T01:38:02.002Z,4.40
2023-03-08T01:40:32.004Z,4.40
2023-03-08T01:43:00.332Z,4.40
2023-03-08T01:45:47.716Z,4.30
2023-03-08T01:48:17.154Z,4.20
2023-03-08T01:50:59.892Z,4.20
2023-03-08T01:53:28.063Z,4.20
2023-03-08T01:55:57.715Z,4.20
2023-03-08T01:58:26.756Z,4.10
2023-03-08T02:00:55.874Z,4.10
2023-03-08T02:03:24.612Z,4.10
2023-03-08T02:05:52.778Z,4.10
2023-03-08T02:08:23.800Z,4.10
2023-03-08T02:10:52.851Z,4.00
2023-03-08T02:13:43.946Z,4.00
2023-03-08T02:16:14.099Z,3.90
2023-03-08T02:18:53.377Z,3.80
2023-03-08T02:21:23.410Z,3.80
2023-03-08T02:23:53.321Z,3.80
2023-03-08T02:26:21.891Z,3.80
2023-03-08T02:28:50.208Z,3.70
2023-03-08T02:31:18.372Z,3.80
2023-03-08T02:33:46.918Z,3.80
2023-03-08T02:36:15.011Z,3.70
2023-03-08T02:38:44.261Z,3.80
2023-03-08T02:41:13.652Z,3.70
2023-03-08T02:43:42.456Z,3.70
2023-03-08T02:46:12.030Z,3.60
2023-03-08T02:48:40.396Z,3.60
2023-03-08T02:51:08.997Z,3.50
2023-03-08T02:53:37.222Z,3.50
2023-03-08T02:56:05.733Z,3.50
2023-03-08T02:58:35.589Z,3.50
2023-03-08T03:01:04.462Z,3.50
2023-03-08T03:03:33.029Z,3.50
2023-03-08T03:06:01.285Z,3.50
2023-03-08T03:08:33.827Z,3.50
2023-03-08T03:11:01.971Z,3.50
2023-03-08T03:13:31.365Z,3.50
2023-03-08T03:16:06.078Z,3.40
2023-03-08T03:18:34.672Z,3.40
2023-03-08T03:21:04.389Z,3.40
2023-03-08T03:23:33.087Z,3.40
2023-03-08T03:26:05.227Z,3.40
2023-03-08T03:28:34.275Z,3.40
2023-03-08T03:31:07.568Z,3.40
2023-03-08T03:33:36.358Z,3.50
2023-03-08T03:36:05.301Z,3.40
2023-03-08T03:38:35.990Z,3.50
2023-03-08T03:41:05.018Z,3.50
2023-03-08T03:43:33.689Z,3.40
2023-03-08T03:46:03.445Z,3.40
2023-03-08T03:48:34.939Z,3.40
2023-03-08T03:51:04.442Z,3.40
2023-03-08T03:53:33.455Z,3.40
2023-03-08T03:56:03.702Z,3.40
2023-03-08T03:58:31.884Z,3.40
2023-03-08T04:01:00.342Z,3.50
2023-03-08T04:03:33.960Z,3.50
2023-03-08T04:06:07.399Z,3.40
2023-03-08T04:08:41.974Z,3.40
2023-03-08T04:11:13.934Z,3.40
2023-03-08T04:13:42.506Z,3.40
2023-03-08T04:16:11.546Z,3.40
2023-03-08T04:18:41.658Z,3.40
2023-03-08T04:21:10.589Z,3.40
2023-03-08T04:23:40.105Z,3.40
2023-03-08T04:26:09.539Z,3.40
2023-03-08T04:28:39.259Z,3.50
2023-03-08T04:31:14.943Z,3.40
2023-03-08T04:33:45.612Z,3.40
2023-03-08T04:36:15.754Z,3.40
2023-03-08T04:38:46.046Z,3.40
2023-03-08T04:41:14.649Z,3.30
2023-03-08T04:43:55.221Z,3.20
2023-03-08T04:46:31.689Z,3.20
2023-03-08T04:49:02.986Z,3.20
2023-03-08T04:51:37.177Z,3.30
2023-03-08T04:54:08.736Z,3.20
2023-03-08T04:56:41.819Z,3.20
2023-03-08T04:59:12.042Z,3.20
2023-03-08T05:01:40.227Z,3.10
2023-03-08T05:04:11.403Z,3.10
2023-03-08T05:06:41.451Z,3.10
2023-03-08T05:09:13.219Z,3.10
2023-03-08T05:11:43.581Z,3.10
2023-03-08T05:14:12.414Z,3.10
2023-03-08T05:16:40.868Z,3.10
2023-03-08T05:19:09.083Z,3.00
2023-03-08T05:21:46.482Z,3.00
2023-03-08T05:24:15.655Z,3.10
2023-03-08T05:26:45.669Z,3.20
2023-03-08T05:29:17.976Z,3.40
2023-03-08T05:31:46.938Z,3.40
2023-03-08T05:34:16.468Z,3.40
2023-03-08T05:36:49.575Z,3.40
2023-03-08T05:39:17.913Z,3.50
2023-03-08T05:41:55.964Z,3.60
2023-03-08T05:44:30.174Z,4.00
2023-03-08T05:47:01.273Z,4.10
2023-03-08T05:49:30.008Z,4.10
2023-03-08T05:52:00.785Z,4.20
2023-03-08T05:54:30.144Z,4.10
2023-03-08T05:57:03.328Z,4.00
2023-03-08T05:59:32.355Z,4.00
2023-03-08T06:02:04.397Z,3.70
2023-03-08T06:04:38.018Z,3.30
2023-03-08T06:07:07.829Z,3.10
2023-03-08T06:09:40.737Z,3.10
2023-03-08T06:12:13.624Z,3.20
2023-03-08T06:14:41.849Z,3.20
2023-03-08T06:17:10.671Z,3.20
2023-03-08T06:19:44.628Z,3.00
2023-03-08T06:22:16.541Z,2.90
2023-03-08T06:24:50.008Z,2.80
2023-03-08T06:27:24.690Z,2.80
2023-03-08T06:29:55.531Z,2.80
2023-03-08T06:32:25.020Z,2.80
2023-03-08T06:34:53.892Z,2.90
2023-03-08T06:37:23.576Z,2.20
2023-03-08T06:39:52.798Z,3.00
2023-03-08T06:42:34.508Z,3.00
2023-03-08T06:45:11.205Z,3.00
2023-03-08T06:47:40.058Z,3.10
2023-03-08T06:50:10.085Z,3.20
2023-03-08T06:52:41.652Z,3.20
2023-03-08T06:55:11.373Z,3.30
2023-03-08T06:57:39.572Z,3.30
2023-03-08T07:00:11.492Z,3.30
2023-03-08T07:02:39.610Z,3.40
2023-03-08T07:05:08.366Z,3.40
2023-03-08T07:07:36.824Z,3.40
2023-03-08T07:10:07.503Z,3.40
2023-03-08T07:12:40.081Z,3.50
2023-03-08T07:15:09.090Z,3.50
2023-03-08T07:17:37.922Z,3.50
2023-03-08T07:20:07.277Z,3.60
2023-03-08T07:22:35.878Z,3.50
2023-03-08T07:25:04.427Z,3.60
2023-03-08T07:27:34.788Z,3.70
2023-03-08T07:30:03.124Z,3.80
2023-03-08T07:32:32.733Z,3.80
2023-03-08T07:35:01.238Z,3.70
2023-03-08T07:37:48.633Z,3.80
2023-03-08T07:40:18.176Z,3.80
2023-03-08T07:42:48.053Z,3.80
2023-03-08T07:45:40.394Z,4.00
2023-03-08T07:48:08.787Z,4.20
2023-03-08T07:50:37.636Z,4.20
2023-03-08T07:53:07.794Z,4.20
2023-03-08T07:55:37.493Z,4.20
2023-03-08T07:58:07.790Z,4.20
2023-03-08T08:00:36.062Z,4.40
2023-03-08T08:03:05.004Z,4.50
2023-03-08T08:05:36.297Z,4.70
2023-03-08T08:08:05.347Z,4.80
2023-03-08T08:10:37.608Z,5.00
2023-03-08T08:13:07.184Z,5.10
2023-03-08T08:15:35.568Z,5.20
2023-03-08T08:18:04.191Z,5.30
2023-03-08T08:20:32.685Z,5.20
2023-03-08T08:23:00.753Z,5.40
2023-03-08T08:25:29.252Z,5.40
2023-03-08T08:27:57.475Z,5.30
2023-03-08T08:30:27.556Z,5.30
2023-03-08T08:32:55.635Z,5.30
2023-03-08T08:35:34.086Z,5.40
2023-03-08T08:38:10.902Z,5.50
2023-03-08T08:40:39.780Z,5.50
2023-03-08T08:43:07.868Z,5.60
2023-03-08T08:45:38.037Z,5.50
2023-03-08T08:48:06.499Z,5.60
2023-03-08T08:50:34.721Z,5.60
2023-03-08T08:53:03.756Z,5.70
2023-03-08T08:55:32.064Z,5.70
2023-03-08T08:58:02.932Z,5.70
2023-03-08T09:00:32.271Z,5.70
2023-03-08T09:03:03.892Z,5.80
2023-03-08T09:05:34.358Z,5.80
2023-03-08T09:08:03.583Z,5.90
2023-03-08T09:10:33.310Z,5.90
2023-03-08T09:13:01.992Z,5.90
2023-03-08T09:15:30.226Z,5.80
2023-03-08T09:17:58.898Z,5.90
2023-03-08T09:20:28.877Z,5.90
2023-03-08T09:22:58.016Z,5.80
2023-03-08T09:25:26.127Z,5.90
2023-03-08T09:27:54.500Z,5.90
2023-03-08T09:30:22.754Z,5.90
2023-03-08T09:32:51.615Z,5.90
2023-03-08T09:35:19.811Z,5.90
2023-03-08T09:37:49.257Z,6.00
2023-03-08T09:40:21.349Z,6.00
2023-03-08T09:42:49.606Z,6.00
2023-03-08T09:48:15.410Z,6.20
2023-03-08T09:50:45.288Z,6.50
2023-03-08T09:53:31.279Z,6.40
2023-03-08T09:56:03.726Z,6.40
2023-03-08T09:58:34.169Z,6.40
2023-03-08T10:01:05.377Z,6.50
2023-03-08T10:03:45.994Z,6.60
2023-03-08T10:06:19.691Z,6.60
2023-03-08T10:08:51.574Z,6.60
2023-03-08T10:11:25.025Z,6.60
2023-03-08T10:13:55.023Z,6.60
2023-03-08T10:16:25.242Z,6.60
2023-03-08T10:18:54.123Z,6.60
2023-03-08T10:21:25.244Z,6.60
2023-03-08T10:23:58.298Z,6.60
2023-03-08T10:26:29.073Z,6.70
2023-03-08T10:28:57.119Z,6.80
2023-03-08T10:31:26.295Z,6.90
2023-03-08T10:33:57.877Z,7.00
2023-03-08T10:36:27.210Z,7.10
2023-03-08T10:39:06.211Z,7.10
2023-03-08T10:41:44.595Z,7.10
2023-03-08T10:44:15.314Z,7.00
2023-03-08T10:46:48.258Z,7.00
2023-03-08T10:49:17.493Z,7.00
2023-03-08T10:51:53.350Z,6.90
2023-03-08T10:54:25.378Z,6.80
2023-03-08T10:56:56.748Z,6.60
2023-03-08T10:59:32.275Z,6.60
2023-03-08T11:02:02.798Z,6.60
2023-03-08T11:04:32.284Z,6.50
2023-03-08T11:07:11.109Z,6.50
2023-03-08T11:09:39.481Z,6.50
2023-03-08T11:12:22.584Z,6.50
2023-03-08T11:14:50.898Z,6.50
2023-03-08T11:17:21.336Z,6.50
2023-03-08T11:20:00.788Z,6.50
2023-03-08T11:22:36.918Z,6.50
2023-03-08T11:25:16.714Z,6.50
2023-03-08T11:27:53.949Z,6.50
2023-03-08T11:30:26.641Z,6.50
2023-03-08T11:33:03.840Z,6.50
2023-03-08T11:35:34.570Z,6.50
2023-03-08T11:38:04.723Z,6.60
2023-03-08T11:40:38.223Z,6.60
2023-03-08T11:43:16.359Z,6.60
2023-03-08T11:45:48.935Z,6.70
2023-03-08T11:48:34.548Z,6.90
2023-03-08T11:51:07.236Z,6.90
2023-03-08T11:53:44.091Z,6.90
2023-03-08T11:56:26.987Z,6.90
2023-03-08T11:59:00.982Z,6.80
2023-03-08T12:01:32.567Z,6.90
2023-03-08T12:04:04.354Z,6.90
2023-03-08T12:06:35.722Z,7.00
2023-03-08T12:09:08.337Z,7.00
2023-03-08T12:11:41.248Z,7.10
2023-03-08T12:14:16.855Z,7.20
2023-03-08T12:16:47.794Z,7.30
2023-03-08T12:19:22.536Z,7.40
2023-03-08T12:21:52.822Z,7.60
2023-03-08T12:24:26.247Z,7.70
2023-03-08T12:26:57.347Z,7.90
2023-03-08T12:29:30.920Z,7.90
2023-03-08T12:31:59.688Z,8.10
2023-03-08T12:34:29.873Z,8.20
2023-03-08T12:36:59.161Z,8.30
2023-03-08T12:39:29.329Z,8.40
2023-03-08T12:41:58.715Z,8.40
2023-03-08T12:44:30.343Z,8.50
2023-03-08T12:47:03.813Z,8.60
2023-03-08T12:49:33.831Z,8.70
2023-03-08T12:52:04.800Z,8.80
2023-03-08T12:54:33.827Z,8.90
2023-03-08T12:57:04.351Z,9.00
2023-03-08T12:59:38.591Z,9.10
2023-03-08T13:02:27.192Z,9.20
2023-03-08T13:05:19.503Z,9.30
2023-03-08T13:07:59.526Z,9.40
2023-03-08T13:10:31.802Z,9.60
2023-03-08T13:13:05.729Z,9.70
2023-03-08T13:15:35.323Z,9.90
2023-03-08T13:18:06.485Z,10.00
2023-03-08T13:20:45.626Z,10.20
2023-03-08T13:23:22.124Z,10.40
2023-03-08T13:25:59.364Z,10.60
2023-03-08T13:33:14.564Z,11.10
2023-03-08T13:35:43.368Z,11.60
2023-03-08T13:38:20.269Z,11.60
2023-03-08T13:40:52.042Z,11.60
2023-03-08T13:43:22.248Z,11.60
2023-03-08T13:45:51.059Z,11.50
2023-03-08T13:48:20.873Z,12.30
2023-03-08T13:50:52.781Z,11.40
2023-03-08T13:53:22.083Z,11.40
2023-03-08T13:55:52.844Z,11.70
2023-03-08T13:58:26.188Z,11.90
2023-03-08T14:01:02.314Z,11.90
2023-03-08T14:03:32.950Z,12.00
2023-03-08T14:06:02.463Z,11.90
2023-03-08T14:08:30.636Z,11.80
2023-03-08T14:11:00.419Z,11.60
2023-03-08T14:13:30.033Z,11.70
2023-03-08T14:15:59.593Z,11.70
2023-03-08T14:18:29.487Z,11.60
2023-03-08T14:21:07.086Z,11.60
2023-03-08T14:23:38.741Z,11.60
2023-03-08T14:26:06.932Z,11.60
2023-03-08T14:28:40.907Z,11.50
2023-03-08T14:31:25.894Z,11.50
2023-03-08T14:33:58.743Z,11.60
2023-03-08T14:36:29.502Z,11.70
2023-03-08T14:39:00.045Z,11.80
2023-03-08T14:41:32.314Z,11.80
2023-03-08T14:44:00.994Z,11.70
2023-03-08T14:46:30.094Z,11.70
2023-03-08T14:48:59.448Z,11.80
2023-03-08T14:51:31.176Z,11.80
2023-03-08T14:54:00.575Z,11.90
2023-03-08T14:56:29.277Z,11.90
2023-03-08T14:58:59.782Z,12.00
2023-03-08T15:01:29.243Z,12.10
2023-03-08T15:03:58.406Z,12.20
2023-03-08T15:06:27.668Z,12.30
2023-03-08T15:08:57.521Z,12.40
2023-03-08T15:11:25.804Z,12.50
2023-03-08T15:13:54.607Z,12.50
2023-03-08T15:16:22.804Z,12.40
2023-03-08T15:18:51.217Z,12.50
2023-03-08T15:21:22.459Z,12.50
2023-03-08T15:23:50.649Z,12.50
2023-03-08T15:26:23.485Z,12.50
2023-03-08T15:28:51.567Z,12.60
2023-03-08T15:31:20.106Z,12.60
2023-03-08T15:33:48.459Z,12.50
2023-03-08T15:36:17.897Z,12.40
2023-03-08T15:38:46.445Z,12.40
2023-03-08T15:41:14.782Z,12.40
2023-03-08T15:43:44.580Z,12.30
2023-03-08T15:46:18.136Z,12.30
2023-03-08T15:48:46.459Z,12.40
2023-03-08T15:51:18.237Z,12.30
2023-03-08T15:53:46.464Z,12.40
2023-03-08T15:56:17.856Z,12.30
2023-03-08T15:58:47.865Z,12.40
2023-03-08T16:01:16.334Z,12.40
2023-03-08T16:03:44.486Z,12.40
2023-03-08T16:06:13.652Z,12.30
2023-03-08T16:08:42.290Z,12.20
2023-03-08T16:11:10.981Z,12.20
2023-03-08T16:13:39.359Z,12.10
2023-03-08T16:16:10.214Z,12.00
2023-03-08T16:18:40.439Z,12.00
2023-03-08T16:21:09.527Z,11.90
2023-03-08T16:23:38.031Z,11.90
2023-03-08T16:26:15.249Z,11.80
2023-03-08T16:28:45.661Z,11.70
2023-03-08T16:31:15.614Z,11.60
2023-03-08T16:33:43.855Z,11.60
2023-03-08T16:36:12.261Z,11.60
2023-03-08T16:38:40.620Z,11.50
2023-03-08T16:41:13.509Z,11.50
2023-03-08T16:43:47.712Z,11.60
2023-03-08T16:46:20.941Z,11.50
2023-03-08T16:48:50.220Z,11.50
2023-03-08T16:51:23.218Z,11.50
2023-03-08T16:53:51.897Z,11.50
2023-03-08T16:56:20.098Z,11.40
2023-03-08T16:58:48.564Z,12.30
2023-03-08T17:01:18.101Z,11.40
2023-03-08T17:03:47.667Z,11.30
2023-03-08T17:06:17.549Z,11.40
2023-03-08T17:08:50.070Z,11.40
2023-03-08T17:11:19.067Z,11.40
2023-03-08T17:13:50.784Z,11.40
2023-03-08T17:16:19.378Z,11.40
2023-03-08T17:18:49.336Z,11.30
2023-03-08T17:21:18.160Z,11.40
2023-03-08T17:23:47.100Z,11.40
2023-03-08T17:26:16.509Z,11.40
2023-03-08T17:28:45.836Z,11.30
2023-03-08T17:31:15.074Z,11.30
2023-03-08T17:33:43.535Z,11.40
2023-03-08T17:36:15.078Z,11.40
2023-03-08T17:38:43.725Z,11.50
2023-03-08T17:41:12.947Z,11.50
2023-03-08T17:43:41.828Z,11.60
2023-03-08T17:46:12.228Z,11.60
2023-03-08T17:48:40.606Z,11.60
2023-03-08T17:51:09.710Z,11.60
2023-03-08T17:53:39.464Z,11.70
2023-03-08T17:56:08.075Z,11.70
2023-03-08T17:58:36.492Z,11.70
2023-03-08T18:01:08.330Z,11.70
2023-03-08T18:03:36.478Z,11.60
2023-03-08T18:06:04.716Z,11.60
2023-03-08T18:08:33.279Z,11.80
2023-03-08T18:11:08.715Z,11.60
2023-03-08T18:13:37.571Z,11.60
2023-03-08T18:16:07.044Z,11.60
2023-03-08T18:18:35.264Z,11.60
2023-03-08T18:21:13.138Z,11.60
2023-03-08T18:23:43.372Z,11.60
2023-03-08T18:26:13.941Z,11.50
2023-03-08T18:28:42.080Z,11.50
2023-03-08T18:31:10.972Z,11.40
2023-03-08T18:33:39.357Z,11.40
2023-03-08T18:36:07.702Z,11.40
2023-03-08T18:38:36.014Z,11.40
2023-03-08T18:41:13.051Z,11.40
2023-03-08T18:43:41.524Z,11.40
2023-03-08T18:46:11.994Z,11.50
2023-03-08T18:48:40.542Z,11.40
2023-03-08T18:51:08.904Z,11.30
2023-03-08T18:53:37.165Z,11.30
2023-03-08T18:56:05.801Z,11.30
2023-03-08T18:58:35.327Z,11.30
2023-03-08T19:01:03.492Z,11.30
2023-03-08T19:03:32.151Z,11.20
2023-03-08T19:06:01.993Z,11.20
2023-03-08T19:08:30.591Z,11.20
2023-03-08T19:10:58.933Z,11.20
2023-03-08T19:13:27.717Z,11.30
2023-03-08T19:15:57.153Z,11.30
2023-03-08T19:18:25.531Z,11.20
2023-03-08T19:20:53.613Z,11.10
2023-03-08T19:23:22.898Z,10.80
2023-03-08T19:26:05.057Z,10.60
2023-03-08T19:28:33.825Z,10.20
2023-03-08T19:31:04.326Z,9.90
2023-03-08T19:33:33.172Z,10.00
2023-03-08T19:36:01.360Z,10.00
2023-03-08T19:38:29.678Z,10.00
2023-03-08T19:40:59.879Z,10.00
2023-03-08T19:43:30.948Z,10.00
2023-03-08T19:46:02.363Z,9.90
2023-03-08T19:48:32.874Z,9.80
2023-03-08T19:51:02.479Z,9.80
2023-03-08T19:53:30.624Z,9.70
2023-03-08T19:56:01.435Z,9.60
2023-03-08T19:58:49.285Z,9.40
2023-03-08T20:01:18.220Z,9.00
2023-03-08T20:03:48.570Z,8.80
2023-03-08T20:06:21.938Z,8.70
2023-03-08T20:08:52.593Z,8.60
2023-03-08T20:11:21.135Z,8.60
2023-03-08T20:13:49.995Z,8.50
2023-03-08T20:16:18.420Z,8.60
2023-03-08T20:18:49.398Z,8.60
2023-03-08T20:21:17.899Z,8.60
2023-03-08T20:23:46.130Z,8.70
2023-03-08T20:26:14.686Z,8.70
2023-03-08T20:28:43.330Z,8.70
2023-03-08T20:31:12.095Z,8.70
2023-03-08T20:33:40.966Z,8.70
2023-03-08T20:36:10.800Z,8.60
2023-03-08T20:38:40.834Z,8.60
2023-03-08T20:41:11.954Z,8.60
2023-03-08T20:43:40.795Z,8.50
2023-03-08T20:46:10.265Z,8.60
2023-03-08T20:48:46.062Z,8.50
2023-03-08T20:51:16.761Z,8.60
2023-03-08T20:53:45.272Z,8.60
2023-03-08T20:56:14.455Z,8.70
2023-03-08T20:58:45.177Z,8.60
2023-03-08T21:01:13.587Z,8.70
2023-03-08T21:03:43.317Z,8.60
2023-03-08T21:06:12.593Z,8.60
2023-03-08T21:08:43.379Z,8.60
2023-03-08T21:11:11.861Z,8.60
2023-03-08T21:13:40.159Z,8.60
2023-03-08T21:16:09.599Z,8.60
2023-03-08T21:18:37.756Z,8.60
2023-03-08T21:21:06.436Z,8.70
2023-03-08T21:23:34.501Z,8.70
2023-03-08T21:26:04.436Z,8.80
2023-03-08T21:28:32.556Z,8.80
2023-03-08T21:31:00.768Z,8.90
2023-03-08T21:33:28.898Z,8.90
2023-03-08T21:35:57.802Z,8.90
2023-03-08T21:38:25.895Z,8.90
2023-03-08T21:40:54.074Z,9.00
2023-03-08T21:43:24.033Z,8.90
2023-03-08T21:45:52.353Z,8.90
2023-03-08T21:48:20.482Z,8.90
2023-03-08T21:50:49.074Z,8.80
2023-03-08T21:53:17.197Z,8.80
2023-03-08T21:55:45.936Z,8.80
2023-03-08T21:58:13.952Z,8.70
2023-03-08T22:00:46.677Z,8.70
2023-03-08T22:03:14.827Z,8.70
2023-03-08T22:05:43.218Z,8.80
2023-03-08T22:08:11.698Z,8.80
2023-03-08T22:10:40.699Z,8.80
2023-03-08T22:13:09.334Z,8.80
2023-03-08T22:15:37.377Z,8.80
2023-03-08T22:18:07.783Z,8.80
2023-03-08T22:20:35.838Z,8.90
2023-03-08T22:23:04.227Z,8.90
2023-03-08T22:25:32.412Z,8.90
2023-03-08T22:28:02.015Z,8.90
2023-03-08T22:30:30.379Z,8.90
2023-03-08T22:32:58.651Z,9.00
2023-03-08T22:35:28.259Z,8.90
2023-03-08T22:37:57.044Z,8.90
2023-03-08T22:40:25.200Z,8.90
2023-03-08T22:42:53.311Z,8.80
2023-03-08T22:45:21.970Z,8.90
2023-03-08T22:47:51.944Z,8.90
2023-03-08T22:50:20.084Z,8.90
2023-03-08T22:52:49.549Z,9.00
2023-03-08T22:55:18.318Z,9.00
2023-03-08T22:57:46.423Z,9.00
2023-03-08T23:03:31.251Z,8.90
2023-03-08T23:05:59.946Z,9.00
2023-03-08T23:08:29.473Z,8.90
2023-03-08T23:10:58.220Z,9.00
2023-03-08T23:13:33.735Z,9.00
2023-03-08T23:16:02.897Z,9.00
2023-03-08T23:18:30.903Z,9.00
2023-03-08T23:21:03.377Z,9.10
2023-03-08T23:23:33.008Z,9.10
2023-03-08T23:26:01.671Z,9.10
2023-03-08T23:28:29.753Z,9.20
2023-03-08T23:30:57.932Z,9.20
2023-03-08T23:33:27.210Z,9.30
2023-03-08T23:35:55.505Z,9.30
2023-03-08T23:38:24.128Z,9.30
2023-03-08T23:40:53.635Z,9.30
2023-03-08T23:43:22.124Z,9.40
2023-03-08T23:45:50.432Z,9.50
2023-03-08T23:48:19.232Z,9.50
2023-03-08T23:50:48.511Z,9.60
2023-03-08T23:53:17.477Z,9.70
2023-03-08T23:55:45.540Z,9.70
2023-03-08T23:58:15.213Z,9.80
